createdAt,value
2023-02-12T00:01:28.930Z,96337.96
2023-02-12T00:03:58.081Z,96333.02
2023-02-12T00:06:27.238Z,96334.51
2023-02-12T00:08:56.588Z,96338.07
2023-02-12T00:11:27.618Z,96338.48
2023-02-12T00:13:57.146Z,96338.91
2023-02-12T00:16:28.885Z,96330.75
2023-02-12T00:18:58.548Z,96329.02
2023-02-12T00:21:27.493Z,96325.31
2023-02-12T00:23:56.199Z,96323.47
2023-02-12T00:26:25.021Z,96322.69
2023-02-12T00:28:53.496Z,96323.63
2023-02-12T00:31:25.790Z,96322.23
2023-02-12T00:33:59.280Z,96324.31
2023-02-12T00:36:29.678Z,96322.46
2023-02-12T00:38:59.728Z,96315.73
2023-02-12T00:41:28.043Z,96314.98
2023-02-12T00:43:56.514Z,96319.02
2023-02-12T00:46:24.851Z,96314.65
2023-02-12T00:48:53.240Z,96313.32
2023-02-12T00:51:21.761Z,96310.80
2023-02-12T00:53:50.066Z,96317.21
2023-02-12T00:56:18.244Z,96311.46
2023-02-12T00:58:49.008Z,96308.86
2023-02-12T01:01:17.575Z,96307.93
2023-02-12T01:03:45.774Z,96307.69
2023-02-12T01:06:14.121Z,96308.89
2023-02-12T01:08:42.204Z,96319.84
2023-02-12T01:11:13.377Z,96321.73
2023-02-12T01:13:41.466Z,96319.64
2023-02-12T01:16:16.212Z,96318.03
2023-02-12T01:18:45.163Z,96315.25
2023-02-12T01:21:35.136Z,96312.46
2023-02-12T01:24:03.673Z,96313.48
2023-02-12T01:26:33.193Z,96310.67
2023-02-12T01:29:04.042Z,96311.96
2023-02-12T01:31:37.499Z,96310.90
2023-02-12T01:34:07.448Z,96313.83
2023-02-12T01:36:36.028Z,96311.78
2023-02-12T01:39:06.227Z,96312.99
2023-02-12T01:41:40.087Z,96312.80
2023-02-12T01:44:23.642Z,96313.48
2023-02-12T01:47:06.090Z,96315.73
2023-02-12T01:49:38.982Z,96322.48
2023-02-12T01:52:20.379Z,96323.42
2023-02-12T01:54:50.501Z,96329.02
2023-02-12T01:57:20.021Z,96331.27
2023-02-12T01:59:51.680Z,96336.84
2023-02-12T02:02:20.066Z,96336.65
2023-02-12T02:04:54.288Z,96335.41
2023-02-12T02:07:22.449Z,96337.13
2023-02-12T02:09:51.645Z,96341.14
2023-02-12T02:12:38.874Z,96344.46
2023-02-12T02:15:09.035Z,96346.44
2023-02-12T02:17:56.490Z,96348.52
2023-02-12T02:20:49.622Z,96349.79
2023-02-12T02:23:23.653Z,96350.84
2023-02-12T02:26:11.997Z,96353.09
2023-02-12T02:28:59.144Z,96357.45
2023-02-12T02:31:32.488Z,96353.11
2023-02-12T02:34:12.627Z,96356.37
2023-02-12T02:37:00.185Z,96354.91
2023-02-12T02:40:01.734Z,96354.10
2023-02-12T02:42:36.893Z,96361.15
2023-02-12T02:45:12.755Z,96368.93
2023-02-12T02:47:55.753Z,96365.59
2023-02-12T02:50:27.816Z,96369.88
2023-02-12T02:53:13.530Z,96372.27
2023-02-12T02:55:49.783Z,96370.74
2023-02-12T02:58:24.252Z,96375.36
2023-02-12T03:01:07.646Z,96374.99
2023-02-12T03:03:53.207Z,96374.02
2023-02-12T03:06:27.567Z,96372.51
2023-02-12T03:09:00.540Z,96370.13
2023-02-12T03:11:31.785Z,96372.69
2023-02-12T03:14:10.212Z,96375.02
2023-02-12T03:16:50.437Z,96379.25
2023-02-12T03:19:22.986Z,96387.61
2023-02-12T03:21:57.926Z,96382.90
2023-02-12T03:24:45.120Z,96381.84
2023-02-12T03:27:41.516Z,96383.20
2023-02-12T03:30:10.418Z,96385.42
2023-02-12T03:33:21.294Z,96386.73
2023-02-12T03:36:01.969Z,96391.95
2023-02-12T03:38:33.527Z,96397.23
2023-02-12T03:41:14.276Z,96394.72
2023-02-12T03:43:52.766Z,96397.37
2023-02-12T03:46:34.347Z,96394.14
2023-02-12T03:49:11.588Z,96398.28
2023-02-12T03:51:42.507Z,96401.42
2023-02-12T03:54:15.815Z,96403.20
2023-02-12T03:56:52.329Z,96407.67
2023-02-12T03:59:22.273Z,96410.90
2023-02-12T04:01:53.792Z,96411.00
2023-02-12T04:04:24.804Z,96413.04
2023-02-12T04:06:54.640Z,96423.17
2023-02-12T04:09:25.661Z,96424.69
2023-02-12T04:11:56.433Z,96423.82
2023-02-12T04:14:50.344Z,96424.14
2023-02-12T04:17:30.827Z,96427.79
2023-02-12T04:20:17.746Z,96431.33
2023-02-12T04:23:20.692Z,96433.73
2023-02-12T04:26:10.872Z,96431.53
2023-02-12T04:29:02.118Z,96431.41
2023-02-12T04:31:43.550Z,96427.52
2023-02-12T04:34:26.855Z,96421.73
2023-02-12T04:37:19.678Z,96425.17
2023-02-12T04:39:49.783Z,96427.09
2023-02-12T04:42:17.906Z,96429.86
2023-02-12T04:44:46.935Z,96433.16
2023-02-12T04:47:17.171Z,96429.34
2023-02-12T04:49:45.358Z,96432.12
2023-02-12T04:52:13.692Z,96431.70
2023-02-12T04:54:41.905Z,96433.44
2023-02-12T04:57:10.146Z,96439.20
2023-02-12T04:59:38.365Z,96444.09
2023-02-12T05:02:06.580Z,96450.49
2023-02-12T05:04:34.911Z,96454.90
2023-02-12T05:07:03.113Z,96456.75
2023-02-12T05:09:31.577Z,96458.38
2023-02-12T05:12:00.040Z,96461.55
2023-02-12T05:14:28.155Z,96469.28
2023-02-12T05:16:56.305Z,96481.14
2023-02-12T05:19:24.459Z,96485.61
2023-02-12T05:21:52.723Z,96492.52
2023-02-12T05:24:20.872Z,96493.09
2023-02-12T05:26:49.710Z,96499.15
2023-02-12T05:29:18.396Z,96502.95
2023-02-12T05:31:46.773Z,96508.46
2023-02-12T05:34:15.230Z,96514.86
2023-02-12T05:36:43.372Z,96517.14
2023-02-12T05:39:11.620Z,96525.70
2023-02-12T05:41:39.816Z,96520.71
2023-02-12T05:44:08.146Z,96528.50
2023-02-12T05:46:36.245Z,96529.72
2023-02-12T05:49:04.768Z,96535.59
2023-02-12T05:51:33.148Z,96536.57
2023-02-12T05:54:04.534Z,96540.44
2023-02-12T05:56:36.262Z,96541.86
2023-02-12T05:59:07.203Z,96541.77
2023-02-12T06:01:39.278Z,96549.27
2023-02-12T06:04:13.863Z,96556.45
2023-02-12T06:06:42.788Z,96559.13
2023-02-12T06:09:13.308Z,96560.52
2023-02-12T06:11:41.951Z,96565.30
2023-02-12T06:14:14.134Z,96565.55
2023-02-12T06:16:45.844Z,96567.27
2023-02-12T06:19:14.496Z,96571.38
2023-02-12T06:21:43.189Z,96572.73
2023-02-12T06:24:13.694Z,96574.95
2023-02-12T06:26:42.359Z,96580.07
2023-02-12T06:29:11.379Z,96586.70
2023-02-12T06:31:39.871Z,96594.05
2023-02-12T06:34:11.314Z,96595.09
2023-02-12T06:36:42.185Z,96596.80
2023-02-12T06:39:11.583Z,96606.73
2023-02-12T06:41:40.002Z,96608.94
2023-02-12T06:44:08.571Z,96602.58
2023-02-12T06:46:36.717Z,96599.92
2023-02-12T06:49:04.889Z,96606.39
2023-02-12T06:51:32.993Z,96609.00
2023-02-12T06:54:01.042Z,96613.01
2023-02-12T06:56:29.235Z,96612.59
2023-02-12T06:59:01.252Z,96614.27
2023-02-12T07:01:30.899Z,96615.23
2023-02-12T07:04:03.132Z,96615.60
2023-02-12T07:06:33.905Z,96622.18
2023-02-12T07:09:04.035Z,96620.49
2023-02-12T07:11:37.794Z,96613.08
2023-02-12T07:14:07.610Z,96604.98
2023-02-12T07:16:35.863Z,96602.37
2023-02-12T07:19:04.027Z,96603.73
2023-02-12T07:21:32.517Z,96607.48
2023-02-12T07:24:00.729Z,96610.11
2023-02-12T07:26:29.162Z,96622.25
2023-02-12T07:28:59.106Z,96624.24
2023-02-12T07:31:27.401Z,96627.23
2023-02-12T07:33:57.754Z,96631.70
2023-02-12T07:36:28.225Z,96637.06
2023-02-12T07:38:57.247Z,96642.27
2023-02-12T07:41:34.576Z,96643.17
2023-02-12T07:44:10.340Z,96644.90
2023-02-12T07:46:42.415Z,96646.77
2023-02-12T07:49:19.661Z,96650.57
2023-02-12T07:51:49.753Z,96659.71
2023-02-12T07:54:18.153Z,96661.48
2023-02-12T07:56:49.466Z,96660.34
2023-02-12T07:59:19.888Z,96664.52
2023-02-12T08:01:52.254Z,96670.61
2023-02-12T08:04:24.127Z,96669.49
2023-02-12T08:06:54.566Z,96668.98
2023-02-12T08:09:28.529Z,96674.46
2023-02-12T08:11:56.781Z,96679.52
2023-02-12T08:14:26.773Z,96677.98
2023-02-12T08:16:55.057Z,96676.55
2023-02-12T08:19:26.436Z,96674.61
2023-02-12T08:21:56.497Z,96676.27
2023-02-12T08:24:25.812Z,96685.23
2023-02-12T08:26:54.208Z,96687.59
2023-02-12T08:29:28.803Z,96686.55
2023-02-12T08:32:02.594Z,96687.83
2023-02-12T08:34:36.052Z,96690.73
2023-02-12T08:37:06.086Z,96692.37
2023-02-12T08:39:34.692Z,96687.62
2023-02-12T08:42:02.990Z,96689.77
2023-02-12T08:44:31.349Z,96692.28
2023-02-12T08:46:59.483Z,96699.14
2023-02-12T08:49:30.016Z,96709.38
2023-02-12T08:51:59.982Z,96707.33
2023-02-12T08:54:29.982Z,96711.82
2023-02-12T08:57:00.438Z,96713.85
2023-02-12T08:59:28.867Z,96713.34
2023-02-12T09:01:57.108Z,96702.71
2023-02-12T09:04:27.142Z,96698.43
2023-02-12T09:06:56.098Z,96694.83
2023-02-12T09:09:24.429Z,96696.98
2023-02-12T09:11:52.648Z,96695.90
2023-02-12T09:14:24.421Z,96703.29
2023-02-12T09:16:54.760Z,96706.73
2023-02-12T09:19:23.402Z,96701.31
2023-02-12T09:21:56.781Z,96704.26
2023-02-12T09:24:27.841Z,96710.92
2023-02-12T09:26:57.058Z,96721.52
2023-02-12T09:29:25.305Z,96729.00
2023-02-12T09:31:53.728Z,96720.74
2023-02-12T09:34:22.173Z,96708.80
2023-02-12T09:36:50.488Z,96704.41
2023-02-12T09:39:18.615Z,96701.98
2023-02-12T09:42:21.970Z,96696.42
2023-02-12T09:45:06.746Z,96703.38
2023-02-12T09:47:53.316Z,96703.91
2023-02-12T09:50:46.424Z,96706.25
2023-02-12T09:53:21.632Z,96698.55
2023-02-12T09:55:49.901Z,96698.15
2023-02-12T09:58:34.364Z,96701.17
2023-02-12T10:01:14.161Z,96708.73
2023-02-12T10:03:44.016Z,96710.86
2023-02-12T10:06:20.025Z,96712.39
2023-02-12T10:09:24.160Z,96710.23
2023-02-12T10:12:04.594Z,96719.60
2023-02-12T10:14:57.902Z,96724.42
2023-02-12T10:18:12.297Z,96720.92
2023-02-12T10:21:18.884Z,96715.92
2023-02-12T10:24:19.223Z,96718.30
2023-02-12T10:26:50.020Z,96717.27
2023-02-12T10:29:25.064Z,96712.13
2023-02-12T10:32:31.858Z,96709.54
2023-02-12T10:35:00.388Z,96708.68
2023-02-12T10:37:38.632Z,96710.33
2023-02-12T10:40:16.224Z,96714.09
2023-02-12T10:42:52.544Z,96708.18
2023-02-12T10:45:25.381Z,96712.29
2023-02-12T10:48:04.129Z,96713.91
2023-02-12T10:50:45.111Z,96711.69
2023-02-12T10:53:25.280Z,96716.55
2023-02-12T10:56:26.259Z,96714.20
2023-02-12T10:58:59.492Z,96713.77
2023-02-12T11:01:39.207Z,96722.83
2023-02-12T11:04:40.385Z,96727.87
2023-02-12T11:07:12.265Z,96732.99
2023-02-12T11:09:46.668Z,96736.35
2023-02-12T11:12:24.039Z,96734.48
2023-02-12T11:14:55.191Z,96735.15
2023-02-12T11:17:45.488Z,96739.32
2023-02-12T11:20:16.992Z,96749.02
2023-02-12T11:22:55.699Z,96756.73
2023-02-12T11:25:26.646Z,96752.77
2023-02-12T11:28:18.539Z,96752.89
2023-02-12T11:31:04.938Z,96754.04
2023-02-12T11:33:38.028Z,96757.19
2023-02-12T11:36:18.429Z,96757.48
2023-02-12T11:38:55.710Z,96753.91
2023-02-12T11:41:37.382Z,96751.65
2023-02-12T11:44:11.477Z,96750.70
2023-02-12T11:46:41.115Z,96754.64
2023-02-12T11:49:39.475Z,96762.77
2023-02-12T11:52:15.562Z,96771.56
2023-02-12T11:54:49.208Z,96771.36
2023-02-12T11:57:59.334Z,96767.20
2023-02-12T12:00:37.383Z,96773.23
2023-02-12T12:03:15.381Z,96780.63
2023-02-12T12:05:51.035Z,96782.91
2023-02-12T12:08:30.240Z,96788.55
2023-02-12T12:11:08.134Z,96794.92
2023-02-12T12:13:43.308Z,96786.64
2023-02-12T12:16:41.284Z,96782.56
2023-02-12T12:19:52.516Z,96780.39
2023-02-12T12:22:30.827Z,96782.38
2023-02-12T12:25:02.604Z,96786.63
2023-02-12T12:28:05.501Z,96791.11
2023-02-12T12:30:58.506Z,96791.09
2023-02-12T12:33:30.965Z,96791.16
2023-02-12T12:36:21.847Z,96796.82
2023-02-12T12:39:01.860Z,96797.58
2023-02-12T12:41:42.316Z,96799.41
2023-02-12T12:44:25.432Z,96800.45
2023-02-12T12:47:12.089Z,96809.77
2023-02-12T12:50:12.618Z,96807.51
2023-02-12T12:53:02.858Z,96809.73
2023-02-12T12:56:12.143Z,96816.23
2023-02-12T12:59:15.637Z,96824.67
2023-02-12T13:01:58.832Z,96826.90
2023-02-12T13:04:39.273Z,96825.02
2023-02-12T13:07:29.141Z,96820.73
2023-02-12T13:10:17.482Z,96821.88
2023-02-12T13:12:55.593Z,96827.92
2023-02-12T13:15:32.923Z,96828.34
2023-02-12T13:18:30.255Z,96832.33
2023-02-12T13:21:25.004Z,96833.98
2023-02-12T13:24:08.370Z,96835.98
2023-02-12T13:26:59.747Z,96841.46
2023-02-12T13:29:58.773Z,96848.08
2023-02-12T13:32:32.780Z,96854.17
2023-02-12T13:35:05.124Z,96859.02
2023-02-12T13:37:37.031Z,96863.81
2023-02-12T13:40:14.049Z,96863.14
2023-02-12T13:43:00.333Z,96864.93
2023-02-12T13:45:43.852Z,96868.50
2023-02-12T13:48:29.431Z,96870.28
2023-02-12T13:51:31.615Z,96875.55
2023-02-12T13:54:27.821Z,96880.30
2023-02-12T13:57:01.786Z,96884.63
2023-02-12T13:59:33.074Z,96885.91
2023-02-12T14:02:33.900Z,96888.34
2023-02-12T14:05:19.012Z,96887.36
2023-02-12T14:07:54.897Z,96889.35
2023-02-12T14:10:30.630Z,96889.79
2023-02-12T14:13:19.932Z,96889.62
2023-02-12T14:15:54.478Z,96893.66
2023-02-12T14:18:26.768Z,96896.84
2023-02-12T14:21:13.466Z,96894.27
2023-02-12T14:23:46.392Z,96892.41
2023-02-12T14:26:19.470Z,96892.00
2023-02-12T14:28:53.635Z,96893.76
2023-02-12T14:31:27.919Z,96892.40
2023-02-12T14:34:05.524Z,96897.33
2023-02-12T14:36:33.851Z,96899.27
2023-02-12T14:39:04.603Z,96895.52
2023-02-12T14:41:38.023Z,96886.41
2023-02-12T14:44:18.560Z,96884.27
2023-02-12T14:46:51.370Z,96888.16
2023-02-12T14:49:44.280Z,96890.91
2023-02-12T14:52:16.104Z,96887.63
2023-02-12T14:54:56.390Z,96888.63
2023-02-12T14:57:35.786Z,96891.29
2023-02-12T15:00:28.540Z,96899.00
2023-02-12T15:03:12.194Z,96896.11
2023-02-12T15:05:56.137Z,96895.38
2023-02-12T15:08:27.557Z,96895.85
2023-02-12T15:11:04.442Z,96898.31
2023-02-12T15:13:44.452Z,96906.00
2023-02-12T15:16:44.865Z,96910.09
2023-02-12T15:19:41.715Z,96913.73
2023-02-12T15:22:36.694Z,96912.61
2023-02-12T15:25:20.252Z,96915.76
2023-02-12T15:27:50.097Z,96924.65
2023-02-12T15:30:26.321Z,96928.80
2023-02-12T15:33:09.315Z,96926.75
2023-02-12T15:35:44.401Z,96931.94
2023-02-12T15:38:22.410Z,96934.88
2023-02-12T15:40:56.347Z,96935.02
2023-02-12T15:43:30.404Z,96938.16
2023-02-12T15:45:58.562Z,96944.55
2023-02-12T15:48:33.196Z,96952.10
2023-02-12T15:51:04.442Z,96955.51
2023-02-12T15:53:33.730Z,96965.11
2023-02-12T15:56:03.168Z,96971.11
2023-02-12T15:58:39.396Z,96979.35
2023-02-12T16:01:08.236Z,96985.71
2023-02-12T16:03:39.372Z,96989.80
2023-02-12T16:06:14.129Z,96995.42
2023-02-12T16:08:46.261Z,96995.33
2023-02-12T16:11:20.043Z,96998.82
2023-02-12T16:13:52.668Z,96998.55
2023-02-12T16:16:27.248Z,96995.00
2023-02-12T16:19:20.111Z,96999.55
2023-02-12T16:21:53.120Z,97003.95
2023-02-12T16:24:32.150Z,97011.60
2023-02-12T16:27:09.120Z,97022.02
2023-02-12T16:29:44.864Z,97030.86
2023-02-12T16:32:35.765Z,97032.27
2023-02-12T16:35:24.380Z,97039.75
2023-02-12T16:38:31.696Z,97039.45
2023-02-12T16:41:33.218Z,97045.36
2023-02-12T16:44:01.312Z,97047.16
2023-02-12T16:46:43.910Z,97054.64
2023-02-12T16:49:17.755Z,97052.80
2023-02-12T16:51:47.902Z,97060.11
2023-02-12T16:54:31.725Z,97060.85
2023-02-12T16:57:01.318Z,97067.64
2023-02-12T16:59:30.181Z,97074.04
2023-02-12T17:01:59.650Z,97074.42
2023-02-12T17:04:28.262Z,97072.21
2023-02-12T17:06:58.163Z,97069.98
2023-02-12T17:09:26.612Z,97069.13
2023-02-12T17:11:56.180Z,97074.93
2023-02-12T17:14:24.332Z,97076.65
2023-02-12T17:16:52.659Z,97077.17
2023-02-12T17:19:22.043Z,97069.95
2023-02-12T17:21:52.113Z,97069.97
2023-02-12T17:24:24.621Z,97070.36
2023-02-12T17:26:54.221Z,97078.27
2023-02-12T17:29:24.431Z,97082.42
2023-02-12T17:31:54.117Z,97084.15
2023-02-12T17:34:23.955Z,97088.81
2023-02-12T17:36:53.280Z,97091.22
2023-02-12T17:39:21.583Z,97095.69
2023-02-12T17:41:50.087Z,97098.27
2023-02-12T17:44:18.259Z,97096.38
2023-02-12T17:46:46.536Z,97098.60
2023-02-12T17:49:15.058Z,97101.69
2023-02-12T17:51:43.314Z,97103.55
2023-02-12T17:54:12.408Z,97107.15
2023-02-12T17:56:40.695Z,97107.32
2023-02-12T17:59:10.503Z,97107.31
2023-02-12T18:01:39.908Z,97108.00
2023-02-12T18:04:08.402Z,97108.54
2023-02-12T18:06:36.584Z,97106.81
2023-02-12T18:09:04.968Z,97104.23
2023-02-12T18:11:33.537Z,97097.72
2023-02-12T18:14:02.470Z,97097.02
2023-02-12T18:16:33.676Z,97095.61
2023-02-12T18:19:04.601Z,97093.72
2023-02-12T18:21:35.135Z,97095.23
2023-02-12T18:24:03.575Z,97093.15
2023-02-12T18:26:32.535Z,97095.39
2023-02-12T18:29:01.537Z,97095.36
2023-02-12T18:31:30.095Z,97098.10
2023-02-12T18:33:58.599Z,97094.84
2023-02-12T18:36:26.939Z,97095.15
2023-02-12T18:38:55.239Z,97094.61
2023-02-12T18:41:26.458Z,97093.91
2023-02-12T18:43:56.882Z,97094.91
2023-02-12T18:46:28.023Z,97093.85
2023-02-12T18:48:57.004Z,97092.80
2023-02-12T18:51:28.175Z,97093.96
2023-02-12T18:54:01.768Z,97096.00
2023-02-12T18:56:33.211Z,97097.84
2023-02-12T18:59:05.421Z,97106.08
2023-02-12T19:01:35.303Z,97107.46
2023-02-12T19:04:05.862Z,97106.27
2023-02-12T19:06:40.680Z,97109.17
2023-02-12T19:09:10.059Z,97112.79
2023-02-12T19:11:38.318Z,97119.98
2023-02-12T19:14:07.121Z,97121.35
2023-02-12T19:16:35.771Z,97121.87
2023-02-12T19:19:04.076Z,97122.01
2023-02-12T19:21:32.499Z,97124.71
2023-02-12T19:24:03.026Z,97122.58
2023-02-12T19:26:33.509Z,97122.34
2023-02-12T19:29:02.202Z,97126.76
2023-02-12T19:31:36.494Z,97131.30
2023-02-12T19:34:08.520Z,97135.59
2023-02-12T19:36:37.369Z,97137.06
2023-02-12T19:39:06.270Z,97127.41
2023-02-12T19:41:41.471Z,97129.27
2023-02-12T19:44:12.935Z,97137.77
2023-02-12T19:46:42.092Z,97139.98
2023-02-12T19:49:19.496Z,97150.75
2023-02-12T19:51:48.107Z,97155.77
2023-02-12T19:54:18.117Z,97152.04
2023-02-12T19:56:47.052Z,97152.39
2023-02-12T19:59:17.677Z,97152.93
2023-02-12T20:01:48.258Z,97158.40
2023-02-12T20:04:19.806Z,97166.23
2023-02-12T20:06:52.755Z,97171.66
2023-02-12T20:09:22.530Z,97167.87
2023-02-12T20:11:51.685Z,97161.80
2023-02-12T20:14:22.926Z,97164.40
2023-02-12T20:16:54.927Z,97168.54
2023-02-12T20:19:26.281Z,97169.64
2023-02-12T20:21:56.894Z,97171.08
2023-02-12T20:24:30.713Z,97169.81
2023-02-12T20:26:59.964Z,97167.46
2023-02-12T20:29:29.107Z,97169.52
2023-02-12T20:31:57.529Z,97166.90
2023-02-12T20:34:25.953Z,97168.41
2023-02-12T20:36:54.368Z,97168.93
2023-02-12T20:39:23.024Z,97170.30
2023-02-12T20:41:51.529Z,97172.50
2023-02-12T20:44:21.769Z,97173.73
2023-02-12T20:46:55.668Z,97171.21
2023-02-12T20:49:26.187Z,97179.01
2023-02-12T20:51:54.903Z,97184.15
2023-02-12T20:54:23.232Z,97190.59
2023-02-12T20:56:51.632Z,97194.51
2023-02-12T20:59:20.784Z,97195.83
2023-02-12T21:01:49.294Z,97195.63
2023-02-12T21:04:19.722Z,97195.55
2023-02-12T21:06:48.754Z,97201.33
2023-02-12T21:09:18.879Z,97207.25
2023-02-12T21:11:48.078Z,97208.55
2023-02-12T21:14:24.797Z,97207.79
2023-02-12T21:16:55.489Z,97211.35
2023-02-12T21:19:25.175Z,97216.70
2023-02-12T21:21:53.816Z,97215.75
2023-02-12T21:24:25.039Z,97219.39
2023-02-12T21:26:54.943Z,97214.93
2023-02-12T21:29:23.581Z,97212.90
2023-02-12T21:31:52.196Z,97214.30
2023-02-12T21:34:23.245Z,97209.34
2023-02-12T21:36:54.666Z,97202.95
2023-02-12T21:39:27.456Z,97198.32
2023-02-12T21:42:05.171Z,97199.32
2023-02-12T21:44:35.720Z,97201.48
2023-02-12T21:47:04.830Z,97194.61
2023-02-12T21:49:33.220Z,97196.80
2023-02-12T21:52:03.980Z,97197.43
2023-02-12T21:54:32.620Z,97193.08
2023-02-12T21:57:01.126Z,97188.11
2023-02-12T21:59:31.973Z,97193.25
2023-02-12T22:02:01.811Z,97192.92
2023-02-12T22:04:30.300Z,97191.65
2023-02-12T22:07:03.057Z,97197.92
2023-02-12T22:09:32.122Z,97201.91
2023-02-12T22:12:00.381Z,97200.60
2023-02-12T22:14:28.496Z,97195.55
2023-02-12T22:16:56.616Z,97199.83
2023-02-12T22:19:24.769Z,97197.81
2023-02-12T22:21:52.833Z,97203.25
2023-02-12T22:24:21.591Z,97200.12
2023-02-12T22:26:49.806Z,97204.02
2023-02-12T22:29:18.477Z,97206.14
2023-02-12T22:31:47.817Z,97205.95
2023-02-12T22:34:19.103Z,97213.35
2023-02-12T22:36:48.192Z,97214.19
2023-02-12T22:39:17.750Z,97214.29
2023-02-12T22:41:46.296Z,97214.13
2023-02-12T22:44:16.195Z,97211.01
2023-02-12T22:46:44.828Z,97214.35
2023-02-12T22:49:13.731Z,97214.92
2023-02-12T22:51:42.375Z,97215.63
2023-02-12T22:54:16.401Z,97217.55
2023-02-12T22:56:45.906Z,97217.86
2023-02-12T22:59:14.112Z,97218.99
2023-02-12T23:01:42.357Z,97218.34
2023-02-12T23:04:18.680Z,97227.56
2023-02-12T23:06:47.395Z,97232.14
2023-02-12T23:09:19.291Z,97230.77
2023-02-12T23:11:48.504Z,97227.90
2023-02-12T23:14:17.376Z,97225.48
2023-02-12T23:16:46.039Z,97225.83
2023-02-12T23:19:15.074Z,97222.35
2023-02-12T23:21:43.645Z,97223.56
2023-02-12T23:24:15.255Z,97228.09
2023-02-12T23:26:43.526Z,97228.29
2023-02-12T23:29:12.247Z,97224.46
2023-02-12T23:31:40.362Z,97222.19
2023-02-12T23:34:08.779Z,97223.63
2023-02-12T23:36:37.019Z,97221.38
2023-02-12T23:39:06.079Z,97220.95
2023-02-12T23:41:34.588Z,97210.76
2023-02-12T23:44:03.170Z,97211.77
2023-02-12T23:46:31.750Z,97219.05
2023-02-12T23:48:59.820Z,97218.02
2023-02-12T23:51:27.875Z,97208.46
2023-02-12T23:53:55.990Z,97200.17
2023-02-12T23:56:24.401Z,97202.34
2023-02-12T23:58:52.626Z,97200.81
